createdAt,value
2022-08-07T00:00:40.110Z,1.73
2022-08-07T00:05:41.931Z,2.33
2022-08-07T00:10:48.384Z,2.70
2022-08-07T00:15:59.315Z,2.40
2022-08-07T00:21:08.167Z,1.58
2022-08-07T00:26:49.389Z,2.25
2022-08-07T00:31:50.062Z,1.95
2022-08-07T00:36:53.270Z,2.03
2022-08-07T00:42:02.211Z,2.80
2022-08-07T00:47:15.573Z,1.83
2022-08-07T00:52:29.015Z,3.58
2022-08-07T00:57:34.939Z,2.30
2022-08-07T01:02:36.695Z,3.45
2022-08-07T01:07:41.315Z,2.20
2022-08-07T01:12:53.516Z,2.17
2022-08-07T01:17:56.380Z,2.55
2022-08-07T01:23:12.718Z,3.05
2022-08-07T01:28:15.009Z,5.35
2022-08-07T01:33:17.212Z,1.45
2022-08-07T01:38:25.241Z,5.38
2022-08-07T01:43:34.734Z,2.30
2022-08-07T01:48:46.844Z,2.58
2022-08-07T01:54:08.441Z,4.07
2022-08-07T01:59:24.653Z,1.92
2022-08-07T02:04:56.148Z,2.88
2022-08-07T02:10:00.764Z,2.33
2022-08-07T02:15:06.687Z,2.55
2022-08-07T02:26:10.921Z,1.88
2022-08-07T02:30:46.316Z,2.92
2022-08-07T02:36:26.796Z,3.20
2022-08-07T02:41:13.895Z,6.90
2022-08-07T02:46:26.006Z,2.22
2022-08-07T02:51:49.726Z,2.30
2022-08-07T02:56:56.213Z,3.83
2022-08-07T03:02:01.321Z,2.75
2022-08-07T03:07:10.452Z,4.28
2022-08-07T03:12:21.691Z,4.55
2022-08-07T03:17:24.079Z,5.13
2022-08-07T03:22:30.322Z,2.80
2022-08-07T03:27:58.788Z,4.90
2022-08-07T03:32:59.244Z,2.50
2022-08-07T03:38:07.199Z,3.03
2022-08-07T03:43:14.426Z,5.07
2022-08-07T03:48:16.683Z,4.25
2022-08-07T03:53:18.383Z,2.35
2022-08-07T03:59:08.167Z,3.45
2022-08-07T04:03:55.513Z,5.32
2022-08-07T04:08:57.693Z,2.35
2022-08-07T04:14:10.137Z,3.55
2022-08-07T04:19:25.429Z,4.47
2022-08-07T04:24:48.771Z,4.53
2022-08-07T04:30:01.565Z,3.85
2022-08-07T04:35:05.963Z,4.07
2022-08-07T04:40:08.307Z,4.57
2022-08-07T04:45:11.859Z,6.80
2022-08-07T04:50:42.765Z,6.68
2022-08-07T04:58:15.190Z,4.72
2022-08-07T05:01:50.620Z,4.72
2022-08-07T05:07:20.409Z,3.85
2022-08-07T05:12:30.528Z,5.65
2022-08-07T05:17:52.390Z,5.85
2022-08-07T05:22:58.370Z,5.20
2022-08-07T05:28:03.087Z,6.03
2022-08-07T05:33:22.418Z,6.25
2022-08-07T05:38:58.255Z,5.10
2022-08-07T05:44:11.941Z,5.00
2022-08-07T05:49:14.586Z,4.60
2022-08-07T05:54:30.708Z,5.68
2022-08-07T05:59:56.098Z,6.05
2022-08-07T06:05:05.999Z,6.35
2022-08-07T06:10:15.086Z,7.22
2022-08-07T06:15:19.925Z,9.52
2022-08-07T06:20:31.643Z,13.88
2022-08-07T06:25:36.190Z,9.95
2022-08-07T06:30:42.646Z,9.95
2022-08-07T06:36:06.288Z,10.07
2022-08-07T06:41:15.838Z,11.68
2022-08-07T06:46:34.983Z,10.35
2022-08-07T06:51:49.620Z,9.77
2022-08-07T06:56:53.405Z,10.07
2022-08-07T07:01:58.633Z,8.68
2022-08-07T07:07:02.107Z,10.05
2022-08-07T07:12:35.423Z,9.55
2022-08-07T07:17:50.580Z,8.43
2022-08-07T07:24:10.287Z,6.60
2022-08-07T07:28:42.106Z,9.65
2022-08-07T07:33:56.524Z,6.28
2022-08-07T07:39:01.492Z,6.25
2022-08-07T07:44:18.079Z,5.20
2022-08-07T07:50:31.600Z,4.50
2022-08-07T07:54:52.114Z,4.57
2022-08-07T07:59:55.580Z,4.45
2022-08-07T08:04:57.486Z,6.05
2022-08-07T08:10:04.816Z,5.03
2022-08-07T08:15:08.083Z,4.78
2022-08-07T08:20:22.491Z,7.32
2022-08-07T08:25:51.084Z,5.47
2022-08-07T08:30:59.750Z,3.08
2022-08-07T08:36:03.571Z,3.90
2022-08-07T08:41:18.703Z,3.03
2022-08-07T08:46:44.772Z,4.07
2022-08-07T08:52:13.744Z,3.45
2022-08-07T08:57:35.416Z,2.83
2022-08-07T09:02:39.651Z,5.60
2022-08-07T09:08:24.088Z,3.47
2022-08-07T09:13:59.488Z,2.00
2022-08-07T09:19:53.707Z,2.70
2022-08-07T09:25:17.794Z,4.95
2022-08-07T09:30:20.709Z,2.85
2022-08-07T09:36:04.798Z,4.22
2022-08-07T09:41:58.332Z,3.00
2022-08-07T09:47:50.209Z,2.15
2022-08-07T09:52:48.549Z,2.40
2022-08-07T09:58:08.499Z,2.35
2022-08-07T10:04:05.251Z,1.80
2022-08-07T10:09:08.623Z,1.67
2022-08-07T10:14:23.131Z,3.85
2022-08-07T10:20:12.958Z,2.67
2022-08-07T10:25:42.278Z,2.65
2022-08-07T10:31:11.625Z,2.05
2022-08-07T10:36:29.631Z,2.45
2022-08-07T10:42:09.241Z,1.67
2022-08-07T10:47:53.626Z,3.20
2022-08-07T10:53:12.303Z,1.75
2022-08-07T10:58:33.318Z,4.50
2022-08-07T11:03:51.311Z,2.08
2022-08-07T11:09:12.927Z,3.67
2022-08-07T11:14:46.243Z,1.77
2022-08-07T11:20:22.432Z,2.30
2022-08-07T11:25:36.187Z,2.53
2022-08-07T11:31:08.835Z,2.72
2022-08-07T11:36:34.773Z,3.92
2022-08-07T11:42:02.157Z,3.47
2022-08-07T11:47:19.209Z,1.67
2022-08-07T11:52:41.788Z,3.70
2022-08-07T11:57:59.534Z,2.47
2022-08-07T12:03:44.406Z,11.98
2022-08-07T12:08:55.857Z,1.67
2022-08-07T12:14:08.702Z,1.73
2022-08-07T12:19:35.643Z,1.83
2022-08-07T12:26:22.316Z,1.90
2022-08-07T12:31:22.279Z,1.88
2022-08-07T12:36:33.588Z,2.42
2022-08-07T12:41:49.497Z,4.47
2022-08-07T12:47:08.726Z,1.25
2022-08-07T12:52:19.180Z,1.55
2022-08-07T12:57:29.901Z,2.08
2022-08-07T13:02:49.454Z,1.10
2022-08-07T13:08:23.260Z,1.80
2022-08-07T13:13:57.416Z,1.25
2022-08-07T13:19:45.637Z,1.58
2022-08-07T13:25:02.940Z,2.47
2022-08-07T13:30:19.714Z,1.38
2022-08-07T13:36:05.636Z,1.90
2022-08-07T13:41:48.527Z,1.23
2022-08-07T13:46:55.057Z,4.47
2022-08-07T13:52:22.766Z,2.33
2022-08-07T13:57:26.528Z,2.53
2022-08-07T14:02:51.171Z,3.13
2022-08-07T14:08:01.462Z,1.77
2022-08-07T14:13:06.180Z,1.20
2022-08-07T14:18:28.924Z,0.82
2022-08-07T14:24:00.282Z,1.17
2022-08-07T14:29:06.015Z,1.00
2022-08-07T14:34:29.728Z,1.50
2022-08-07T14:40:18.276Z,2.50
2022-08-07T14:50:27.950Z,0.95
2022-08-07T14:55:32.796Z,1.95
2022-08-07T15:05:55.181Z,2.65
2022-08-07T15:11:15.043Z,2.25
2022-08-07T15:16:31.011Z,5.95
2022-08-07T15:21:59.616Z,3.60
2022-08-07T15:27:19.331Z,6.85
2022-08-07T15:43:55.926Z,1.33
2022-08-07T15:49:11.839Z,1.83
2022-08-07T15:54:15.897Z,1.83
2022-08-07T15:59:20.438Z,1.37
2022-08-07T16:04:44.131Z,2.72
2022-08-07T16:10:05.904Z,1.00
2022-08-07T16:15:57.842Z,2.05
2022-08-07T16:22:01.733Z,1.35
2022-08-07T16:26:30.524Z,2.72
2022-08-07T16:31:58.630Z,2.28
2022-08-07T16:38:03.725Z,1.80
2022-08-07T16:43:03.687Z,2.65
2022-08-07T16:48:15.705Z,1.52
2022-08-07T16:53:55.393Z,1.50
2022-08-07T16:59:11.026Z,2.25
2022-08-07T17:04:57.962Z,2.53
2022-08-07T17:10:32.634Z,2.53
2022-08-07T17:15:54.082Z,2.38
2022-08-07T17:21:01.152Z,3.55
2022-08-07T17:26:30.615Z,4.95
2022-08-07T17:32:03.145Z,1.38
2022-08-07T17:38:05.632Z,1.83
2022-08-07T17:43:17.744Z,2.58
2022-08-07T17:48:30.710Z,1.25
2022-08-07T17:54:02.026Z,3.15
2022-08-07T17:59:09.748Z,4.00
2022-08-07T18:04:35.113Z,2.78
2022-08-07T18:10:05.555Z,3.25
2022-08-07T18:15:08.586Z,2.15
2022-08-07T18:21:11.944Z,1.42
2022-08-07T18:25:44.877Z,2.25
2022-08-07T18:31:04.385Z,6.57
2022-08-07T18:36:14.455Z,3.58
2022-08-07T18:41:45.207Z,3.50
2022-08-07T18:47:11.311Z,5.28
2022-08-07T18:52:53.642Z,3.58
2022-08-07T18:58:19.778Z,1.95
2022-08-07T19:03:43.018Z,1.73
2022-08-07T19:08:56.573Z,1.70
2022-08-07T19:19:46.584Z,3.08
2022-08-07T19:24:52.245Z,7.18
2022-08-07T19:31:01.227Z,4.10
2022-08-07T19:35:26.828Z,3.35
2022-08-07T19:40:36.662Z,4.00
2022-08-07T19:46:05.427Z,4.93
2022-08-07T19:51:19.910Z,4.10
2022-08-07T19:57:52.417Z,7.05
2022-08-07T20:01:57.408Z,2.88
2022-08-07T20:07:00.546Z,5.10
2022-08-07T20:12:31.716Z,3.88
2022-08-07T20:17:29.550Z,3.13
2022-08-07T20:22:34.743Z,3.63
2022-08-07T20:27:47.599Z,3.28
2022-08-07T20:32:59.919Z,4.38
2022-08-07T20:38:06.542Z,3.22
2022-08-07T20:43:14.619Z,3.78
2022-08-07T20:48:29.771Z,4.53
2022-08-07T20:54:02.220Z,4.85
2022-08-07T20:59:01.675Z,3.80
2022-08-07T21:04:22.055Z,3.40
2022-08-07T21:09:51.955Z,4.40
2022-08-07T21:14:57.030Z,5.20
2022-08-07T21:20:04.389Z,4.43
2022-08-07T21:25:38.634Z,3.97
2022-08-07T21:30:56.859Z,3.67
2022-08-07T21:36:11.795Z,4.25
2022-08-07T21:41:38.306Z,4.78
2022-08-07T21:47:01.315Z,7.93
2022-08-07T21:52:18.309Z,4.13
2022-08-07T21:58:01.529Z,5.60
2022-08-07T22:03:18.846Z,5.18
2022-08-07T22:08:51.761Z,5.97
2022-08-07T22:13:55.920Z,5.30
2022-08-07T22:19:18.038Z,4.20
2022-08-07T22:29:50.947Z,5.72
2022-08-07T22:34:56.822Z,4.55
2022-08-07T22:40:10.515Z,7.43
2022-08-07T22:46:40.702Z,4.38
2022-08-07T22:50:55.649Z,6.47
2022-08-07T22:56:08.577Z,5.35
2022-08-07T23:01:49.430Z,5.22
2022-08-07T23:07:39.816Z,4.82
2022-08-07T23:12:51.896Z,5.63
2022-08-07T23:18:09.531Z,5.28
2022-08-07T23:24:06.528Z,6.38
2022-08-07T23:29:43.621Z,4.53
2022-08-07T23:35:37.713Z,5.78
2022-08-07T23:40:51.641Z,5.28
2022-08-07T23:46:23.804Z,5.50
2022-08-07T23:53:00.214Z,8.77
2022-08-07T23:57:05.075Z,8.05
